createdAt,value
2017-10-01T00:02:24.329Z,17.67
2017-10-01T00:04:52.814Z,17.63
2017-10-01T00:07:21.393Z,17.13
2017-10-01T00:09:49.833Z,17.30
2017-10-01T00:12:19.060Z,17.00
2017-10-01T00:14:47.497Z,17.80
2017-10-01T00:17:15.961Z,17.90
2017-10-01T00:19:44.404Z,15.87
2017-10-01T00:22:12.865Z,16.30
2017-10-01T00:24:42.073Z,16.80
2017-10-01T00:27:11.328Z,17.40
2017-10-01T00:29:39.769Z,18.43
2017-10-01T00:32:08.270Z,16.53
2017-10-01T00:34:36.752Z,15.47
2017-10-01T00:37:05.235Z,18.10
2017-10-01T00:39:33.701Z,17.07
2017-10-01T00:42:02.137Z,16.57
2017-10-01T00:44:30.597Z,17.53
2017-10-01T00:46:59.043Z,17.77
2017-10-01T00:49:27.504Z,18.17
2017-10-01T00:51:56.709Z,16.93
2017-10-01T00:54:25.941Z,18.20
2017-10-01T00:56:54.380Z,17.87
2017-10-01T00:59:23.721Z,17.37
2017-10-01T01:01:52.197Z,17.23
2017-10-01T01:04:20.656Z,17.77
2017-10-01T01:06:49.856Z,17.27
2017-10-01T01:09:19.188Z,16.73
2017-10-01T01:11:47.671Z,18.13
2017-10-01T01:14:16.153Z,17.63
2017-10-01T01:16:44.628Z,18.77
2017-10-01T01:19:13.113Z,16.90
2017-10-01T01:21:41.572Z,17.23
2017-10-01T01:24:10.081Z,15.43
2017-10-01T01:26:38.540Z,18.40
2017-10-01T01:29:07.148Z,17.30
2017-10-01T01:31:35.640Z,17.80
2017-10-01T01:34:04.083Z,19.10
2017-10-01T01:36:32.548Z,17.17
2017-10-01T01:39:01.753Z,18.60
2017-10-01T01:41:30.981Z,18.60
2017-10-01T01:43:59.464Z,20.10
2017-10-01T01:46:28.053Z,18.00
2017-10-01T01:48:56.541Z,18.97
2017-10-01T01:51:24.980Z,16.80
2017-10-01T01:53:54.212Z,17.87
2017-10-01T01:56:22.702Z,18.90
2017-10-01T01:58:51.160Z,18.40
2017-10-01T02:01:19.606Z,18.10
2017-10-01T02:03:48.146Z,20.80
2017-10-01T02:06:16.631Z,18.97
2017-10-01T02:08:45.097Z,20.10
2017-10-01T02:11:13.541Z,18.10
2017-10-01T02:13:42.005Z,19.00
2017-10-01T02:16:10.457Z,18.13
2017-10-01T02:18:38.927Z,19.43
2017-10-01T02:21:07.417Z,19.90
2017-10-01T02:23:35.910Z,18.40
2017-10-01T02:26:04.385Z,19.37
2017-10-01T02:28:32.869Z,19.03
2017-10-01T02:31:01.309Z,19.40
2017-10-01T02:33:30.521Z,18.20
2017-10-01T02:35:58.985Z,18.27
2017-10-01T02:38:28.198Z,18.17
2017-10-01T02:40:57.526Z,20.00
2017-10-01T02:43:25.969Z,20.57
2017-10-01T02:45:55.196Z,22.00
2017-10-01T02:48:23.689Z,19.77
2017-10-01T02:50:52.197Z,18.53
2017-10-01T02:53:20.643Z,19.17
2017-10-01T02:55:49.148Z,18.83
2017-10-01T02:58:17.589Z,19.50
2017-10-01T03:00:46.817Z,19.10
2017-10-01T03:03:15.261Z,18.57
2017-10-01T03:05:44.581Z,21.30
2017-10-01T03:08:13.030Z,20.17
2017-10-01T03:10:41.497Z,22.23
2017-10-01T03:13:09.942Z,18.80
2017-10-01T03:15:38.409Z,19.60
2017-10-01T03:18:06.910Z,20.10
2017-10-01T03:20:35.395Z,19.60
2017-10-01T03:23:03.861Z,17.93
2017-10-01T03:25:32.296Z,18.63
2017-10-01T03:28:00.844Z,17.87
2017-10-01T03:30:29.324Z,19.40
2017-10-01T03:32:57.910Z,19.80
2017-10-01T03:35:26.354Z,18.07
2017-10-01T03:37:54.872Z,18.90
2017-10-01T03:40:23.349Z,19.50
2017-10-01T03:42:51.876Z,18.83
2017-10-01T03:45:20.318Z,18.87
2017-10-01T03:47:48.777Z,20.00
2017-10-01T03:50:17.216Z,19.03
2017-10-01T03:52:45.685Z,18.00
2017-10-01T03:55:14.129Z,18.07
2017-10-01T03:57:42.593Z,20.30
2017-10-01T04:00:11.801Z,19.93
2017-10-01T04:02:40.306Z,19.43
2017-10-01T04:05:08.748Z,18.00
2017-10-01T04:07:37.956Z,19.60
2017-10-01T04:10:07.181Z,19.50
2017-10-01T04:12:35.625Z,19.10
2017-10-01T04:15:04.858Z,19.67
2017-10-01T04:17:33.305Z,19.60
2017-10-01T04:20:02.645Z,20.10
2017-10-01T04:22:31.084Z,18.43
2017-10-01T04:25:00.313Z,19.07
2017-10-01T04:27:28.748Z,20.10
2017-10-01T04:29:57.217Z,18.53
2017-10-01T04:32:25.671Z,20.87
2017-10-01T04:34:54.141Z,18.37
2017-10-01T04:37:22.641Z,20.47
2017-10-01T04:39:51.225Z,19.13
2017-10-01T04:42:19.701Z,20.13
2017-10-01T04:44:48.177Z,18.97
2017-10-01T04:47:16.617Z,19.37
2017-10-01T04:49:45.076Z,20.37
2017-10-01T04:52:13.517Z,18.53
2017-10-01T04:54:42.005Z,20.77
2017-10-01T04:57:10.497Z,19.87
2017-10-01T04:59:38.973Z,20.03
2017-10-01T05:02:07.440Z,20.90
2017-10-01T05:04:35.885Z,19.63
2017-10-01T05:07:04.353Z,21.30
2017-10-01T05:09:32.907Z,19.10
2017-10-01T05:12:01.378Z,19.57
2017-10-01T05:14:29.821Z,20.43
2017-10-01T05:16:59.061Z,19.90
2017-10-01T05:19:27.502Z,18.57
2017-10-01T05:21:56.863Z,20.63
2017-10-01T05:24:25.305Z,20.63
2017-10-01T05:26:54.538Z,18.73
2017-10-01T05:29:22.976Z,19.13
2017-10-01T05:31:52.230Z,18.50
2017-10-01T05:34:20.673Z,20.07
2017-10-01T05:36:49.186Z,19.87
2017-10-01T05:39:17.764Z,21.03
2017-10-01T05:41:46.208Z,20.60
2017-10-01T05:44:15.442Z,18.30
2017-10-01T05:46:43.892Z,20.87
2017-10-01T05:49:13.121Z,18.10
2017-10-01T05:51:41.575Z,20.00
2017-10-01T05:54:10.909Z,20.50
2017-10-01T05:56:39.362Z,19.73
2017-10-01T05:59:08.691Z,20.90
2017-10-01T06:01:37.177Z,20.13
2017-10-01T06:04:05.754Z,18.73
2017-10-01T06:06:34.198Z,21.03
2017-10-01T06:09:03.436Z,19.13
2017-10-01T06:11:31.886Z,18.67
2017-10-01T06:14:01.227Z,18.50
2017-10-01T06:16:30.535Z,18.20
2017-10-01T06:18:59.021Z,20.17
2017-10-01T06:21:27.610Z,17.33
2017-10-01T06:23:56.073Z,20.80
2017-10-01T06:26:24.551Z,17.97
2017-10-01T06:28:53.033Z,17.00
2017-10-01T06:31:21.507Z,20.30
2017-10-01T06:33:49.950Z,19.53
2017-10-01T06:36:19.190Z,19.10
2017-10-01T06:38:47.633Z,19.77
2017-10-01T06:41:16.984Z,19.10
2017-10-01T06:43:45.442Z,18.60
2017-10-01T06:46:13.914Z,19.53
2017-10-01T06:48:43.125Z,19.67
2017-10-01T06:51:11.589Z,21.00
2017-10-01T06:53:40.805Z,19.20
2017-10-01T06:56:09.273Z,19.90
2017-10-01T06:58:38.486Z,20.00
2017-10-01T07:01:06.985Z,18.77
2017-10-01T07:03:35.470Z,19.23
2017-10-01T07:06:03.962Z,20.03
2017-10-01T07:08:32.429Z,19.27
2017-10-01T07:11:00.874Z,18.80
2017-10-01T07:13:30.218Z,18.50
2017-10-01T07:15:58.703Z,20.23
2017-10-01T07:18:27.169Z,18.83
2017-10-01T07:20:55.608Z,19.47
2017-10-01T07:23:24.140Z,18.17
2017-10-01T07:25:52.597Z,18.73
2017-10-01T07:28:21.830Z,18.67
2017-10-01T07:30:50.314Z,18.63
2017-10-01T07:33:18.789Z,19.77
2017-10-01T07:35:47.244Z,18.63
2017-10-01T07:38:16.510Z,19.10
2017-10-01T07:40:44.948Z,20.03
2017-10-01T07:43:13.389Z,18.73
2017-10-01T07:45:42.626Z,20.50
2017-10-01T07:48:11.070Z,18.50
2017-10-01T07:50:40.301Z,19.57
2017-10-01T07:53:08.745Z,20.40
2017-10-01T07:55:37.213Z,19.37
2017-10-01T07:58:05.765Z,19.00
2017-10-01T08:00:34.239Z,18.53
2017-10-01T08:03:02.721Z,18.93
2017-10-01T08:05:31.189Z,18.60
2017-10-01T08:07:59.633Z,17.37
2017-10-01T08:10:28.239Z,19.20
2017-10-01T08:12:57.454Z,18.93
2017-10-01T08:15:25.926Z,19.07
2017-10-01T08:17:55.142Z,19.60
2017-10-01T08:20:23.609Z,17.70
2017-10-01T08:22:52.803Z,20.20
2017-10-01T08:25:22.140Z,20.33
2017-10-01T08:27:50.581Z,20.67
2017-10-01T08:30:19.815Z,19.40
2017-10-01T08:32:48.284Z,19.40
2017-10-01T08:35:16.732Z,18.47
2017-10-01T08:37:45.969Z,21.03
2017-10-01T08:40:14.466Z,20.27
2017-10-01T08:42:43.037Z,19.27
2017-10-01T08:45:11.486Z,19.80
2017-10-01T08:47:40.717Z,20.23
2017-10-01T08:50:09.229Z,21.33
2017-10-01T08:52:37.697Z,18.77
2017-10-01T08:55:06.173Z,20.93
2017-10-01T08:57:34.762Z,17.43
2017-10-01T09:00:03.245Z,20.37
2017-10-01T09:02:31.713Z,19.40
2017-10-01T09:05:00.157Z,19.20
2017-10-01T09:07:29.414Z,20.33
2017-10-01T09:09:57.853Z,19.00
2017-10-01T09:12:27.066Z,19.40
2017-10-01T09:14:55.566Z,18.70
2017-10-01T09:17:24.053Z,18.93
2017-10-01T09:19:52.522Z,20.70
2017-10-01T09:22:20.965Z,19.30
2017-10-01T09:24:50.201Z,18.80
2017-10-01T09:27:18.698Z,19.90
2017-10-01T09:29:47.282Z,19.57
2017-10-01T09:32:15.727Z,20.80
2017-10-01T09:34:44.962Z,20.30
2017-10-01T09:37:13.405Z,19.90
2017-10-01T09:39:42.638Z,21.70
2017-10-01T09:42:11.084Z,19.80
2017-10-01T09:44:40.426Z,48.00
2017-10-01T09:47:08.909Z,24.73
2017-10-01T09:49:37.353Z,22.97
2017-10-01T09:52:06.581Z,22.23
2017-10-01T09:54:35.038Z,22.00
2017-10-01T09:57:04.382Z,21.20
2017-10-01T09:59:32.862Z,20.27
2017-10-01T10:02:01.433Z,20.80
2017-10-01T10:04:29.923Z,20.37
2017-10-01T10:06:58.381Z,19.30
2017-10-01T10:09:26.890Z,20.83
2017-10-01T10:11:55.593Z,19.80
2017-10-01T10:14:24.037Z,21.47
2017-10-01T10:16:52.532Z,21.10
2017-10-01T10:19:20.978Z,21.67
2017-10-01T10:21:50.213Z,21.00
2017-10-01T10:24:18.663Z,21.40
2017-10-01T10:26:47.897Z,21.80
2017-10-01T10:29:16.586Z,21.30
2017-10-01T10:31:45.066Z,19.87
2017-10-01T10:34:13.538Z,21.57
2017-10-01T10:36:41.976Z,20.50
2017-10-01T10:39:10.441Z,23.80
2017-10-01T10:41:38.887Z,20.67
2017-10-01T10:44:07.353Z,22.50
2017-10-01T10:46:35.960Z,19.50
2017-10-01T10:49:04.545Z,21.20
2017-10-01T10:51:32.989Z,21.23
2017-10-01T10:54:02.327Z,20.17
2017-10-01T10:56:30.772Z,19.97
2017-10-01T10:59:00.100Z,21.10
2017-10-01T11:01:28.542Z,21.20
2017-10-01T11:03:57.885Z,21.20
2017-10-01T11:06:26.333Z,21.03
2017-10-01T11:08:55.537Z,20.87
2017-10-01T11:11:24.772Z,23.10
2017-10-01T11:13:53.264Z,22.17
2017-10-01T11:16:21.734Z,23.00
2017-10-01T11:18:50.176Z,21.10
2017-10-01T11:21:19.406Z,23.57
2017-10-01T11:23:47.901Z,30.23
2017-10-01T11:26:16.370Z,23.97
2017-10-01T11:28:44.813Z,21.97
2017-10-01T11:31:14.041Z,21.87
2017-10-01T11:33:42.485Z,24.57
2017-10-01T11:36:10.945Z,22.70
2017-10-01T11:38:39.385Z,22.20
2017-10-01T11:41:07.850Z,24.03
2017-10-01T11:43:37.069Z,22.03
2017-10-01T11:46:05.553Z,24.70
2017-10-01T11:48:33.997Z,24.60
2017-10-01T11:51:02.473Z,24.17
2017-10-01T11:53:30.954Z,23.67
2017-10-01T11:55:59.407Z,23.03
2017-10-01T11:58:27.982Z,24.53
2017-10-01T12:00:56.462Z,22.40
2017-10-01T12:03:24.929Z,22.03
2017-10-01T12:05:53.368Z,22.30
2017-10-01T12:08:21.902Z,23.67
2017-10-01T12:10:50.345Z,23.60
2017-10-01T12:13:19.588Z,24.57
2017-10-01T12:15:48.034Z,25.40
2017-10-01T12:18:17.268Z,26.10
2017-10-01T12:20:45.840Z,25.53
2017-10-01T12:23:14.330Z,25.97
2017-10-01T12:25:42.822Z,27.83
2017-10-01T12:28:11.300Z,27.43
2017-10-01T12:30:39.770Z,28.40
2017-10-01T12:33:08.229Z,47.20
2017-10-01T12:35:37.462Z,29.87
2017-10-01T12:38:05.918Z,24.97
2017-10-01T12:40:34.426Z,38.23
2017-10-01T12:43:02.910Z,27.57
2017-10-01T12:45:31.380Z,28.17
2017-10-01T12:47:59.838Z,26.67
2017-10-01T12:50:29.073Z,27.13
2017-10-01T12:52:57.861Z,28.13
2017-10-01T12:55:26.320Z,29.47
2017-10-01T12:57:54.769Z,28.50
2017-10-01T13:00:28.838Z,39.67
2017-10-01T13:02:57.313Z,28.23
2017-10-01T13:05:25.781Z,25.93
2017-10-01T13:07:54.229Z,29.17
2017-10-01T13:10:22.722Z,29.97
2017-10-01T13:12:51.925Z,27.30
2017-10-01T13:15:21.138Z,25.00
2017-10-01T13:17:49.614Z,28.20
2017-10-01T13:20:18.064Z,28.17
2017-10-01T13:22:46.538Z,25.37
2017-10-01T13:25:14.983Z,29.03
2017-10-01T13:27:43.575Z,28.37
2017-10-01T13:30:12.055Z,27.20
2017-10-01T13:32:40.517Z,27.30
2017-10-01T13:35:09.019Z,26.80
2017-10-01T13:37:37.486Z,28.60
2017-10-01T13:40:05.933Z,26.87
2017-10-01T13:42:35.165Z,25.23
2017-10-01T13:45:03.659Z,27.40
2017-10-01T13:47:32.145Z,26.50
2017-10-01T13:50:00.593Z,27.63
2017-10-01T13:52:29.822Z,25.03
2017-10-01T13:54:58.284Z,26.07
2017-10-01T13:57:26.721Z,25.17
2017-10-01T13:59:55.181Z,27.70
2017-10-01T14:02:23.653Z,24.73
2017-10-01T14:04:52.121Z,26.13
2017-10-01T14:07:20.569Z,24.80
2017-10-01T14:09:49.812Z,24.43
2017-10-01T14:12:18.257Z,25.00
2017-10-01T14:14:47.602Z,26.47
2017-10-01T14:17:16.041Z,25.20
2017-10-01T14:19:45.279Z,25.47
2017-10-01T14:22:13.725Z,23.63
2017-10-01T14:24:42.962Z,24.33
2017-10-01T14:27:11.432Z,23.80
2017-10-01T14:29:39.902Z,24.60
2017-10-01T14:32:08.406Z,22.13
2017-10-01T14:34:36.897Z,22.73
2017-10-01T14:37:05.364Z,24.53
2017-10-01T14:39:33.822Z,23.23
2017-10-01T14:42:03.053Z,24.63
2017-10-01T14:44:31.501Z,24.03
2017-10-01T14:47:00.738Z,23.10
2017-10-01T14:49:29.185Z,24.13
2017-10-01T14:51:57.651Z,27.40
2017-10-01T14:54:26.856Z,22.63
2017-10-01T14:56:56.086Z,22.20
2017-10-01T14:59:24.578Z,23.20
2017-10-01T15:01:53.155Z,22.63
2017-10-01T15:04:21.643Z,22.77
2017-10-01T15:06:50.104Z,22.77
2017-10-01T15:09:18.541Z,22.13
2017-10-01T15:11:52.982Z,21.90
2017-10-01T15:14:22.193Z,21.13
2017-10-01T15:16:51.425Z,20.87
2017-10-01T15:19:19.909Z,22.07
2017-10-01T15:21:48.491Z,20.77
2017-10-01T15:24:16.937Z,23.90
2017-10-01T15:26:46.174Z,20.80
2017-10-01T15:29:14.751Z,21.13
2017-10-01T15:31:43.205Z,22.60
2017-10-01T15:34:12.438Z,20.90
2017-10-01T15:36:40.881Z,21.33
2017-10-01T15:39:10.112Z,19.77
2017-10-01T15:41:38.566Z,20.73
2017-10-01T15:44:07.806Z,19.73
2017-10-01T15:46:36.282Z,21.13
2017-10-01T15:49:04.870Z,20.63
2017-10-01T15:51:33.321Z,19.70
2017-10-01T15:54:01.831Z,21.20
2017-10-01T15:56:30.282Z,21.87
2017-10-01T15:58:58.725Z,19.80
2017-10-01T16:01:27.193Z,18.73
2017-10-01T16:03:55.759Z,20.50
2017-10-01T16:06:24.230Z,19.53
2017-10-01T16:08:52.713Z,19.03
2017-10-01T16:11:21.182Z,18.37
2017-10-01T16:13:49.633Z,18.93
2017-10-01T16:16:18.106Z,18.67
2017-10-01T16:18:46.650Z,17.90
2017-10-01T16:21:15.235Z,17.20
2017-10-01T16:23:43.682Z,18.13
2017-10-01T16:26:13.017Z,18.83
2017-10-01T16:28:41.462Z,17.57
2017-10-01T16:31:10.698Z,18.10
2017-10-01T16:33:39.172Z,17.37
2017-10-01T16:36:08.325Z,17.73
2017-10-01T16:38:36.853Z,17.50
2017-10-01T16:41:05.342Z,17.53
2017-10-01T16:43:33.789Z,18.20
2017-10-01T16:46:03.016Z,18.80
2017-10-01T16:48:31.495Z,18.17
2017-10-01T16:50:59.989Z,19.07
2017-10-01T16:53:28.462Z,19.60
2017-10-01T16:55:56.946Z,19.57
2017-10-01T16:58:25.417Z,20.37
2017-10-01T17:00:53.918Z,19.13
2017-10-01T17:03:22.501Z,19.37
2017-10-01T17:05:50.994Z,20.97
2017-10-01T17:08:19.461Z,20.27
2017-10-01T17:10:47.914Z,21.43
2017-10-01T17:13:17.248Z,22.30
2017-10-01T17:15:45.689Z,21.27
2017-10-01T17:18:15.026Z,19.97
2017-10-01T17:20:43.471Z,23.50
2017-10-01T17:23:12.681Z,21.13
2017-10-01T17:25:41.301Z,21.37
2017-10-01T17:28:09.758Z,23.43
2017-10-01T17:30:38.262Z,20.47
2017-10-01T17:33:06.745Z,22.13
2017-10-01T17:35:35.221Z,21.87
2017-10-01T17:38:03.701Z,22.77
2017-10-01T17:40:32.165Z,22.73
2017-10-01T17:43:00.617Z,20.17
2017-10-01T17:45:29.849Z,21.50
2017-10-01T17:47:58.302Z,19.60
2017-10-01T17:50:27.644Z,20.50
2017-10-01T17:52:56.137Z,22.80
2017-10-01T17:55:24.606Z,20.77
2017-10-01T17:57:53.100Z,19.80
2017-10-01T18:00:21.565Z,20.60
2017-10-01T18:02:50.028Z,20.07
2017-10-01T18:05:18.490Z,19.90
2017-10-01T18:07:47.138Z,19.77
2017-10-01T18:10:15.581Z,19.43
2017-10-01T18:12:44.815Z,17.90
2017-10-01T18:15:13.260Z,18.40
2017-10-01T18:17:42.494Z,15.90
2017-10-01T18:20:10.974Z,17.20
2017-10-01T18:22:39.437Z,16.83
2017-10-01T18:25:07.886Z,19.30
2017-10-01T18:27:37.238Z,15.70
2017-10-01T18:30:05.723Z,15.13
2017-10-01T18:32:34.304Z,16.00
2017-10-01T18:35:02.789Z,13.27
2017-10-01T18:37:31.366Z,13.03
2017-10-01T18:39:59.819Z,12.57
2017-10-01T18:42:29.155Z,11.93
2017-10-01T18:44:57.706Z,13.43
2017-10-01T18:47:27.015Z,10.80
2017-10-01T18:49:55.530Z,10.93
2017-10-01T18:52:25.634Z,10.23
2017-10-01T18:54:54.126Z,10.70
2017-10-01T18:57:22.601Z,10.60
2017-10-01T18:59:51.209Z,11.87
2017-10-01T19:02:19.664Z,10.83
2017-10-01T19:04:48.155Z,12.47
2017-10-01T19:07:16.605Z,16.50
2017-10-01T19:09:45.928Z,11.00
2017-10-01T19:12:14.373Z,12.07
2017-10-01T19:14:43.619Z,13.20
2017-10-01T19:17:12.065Z,11.17
2017-10-01T19:19:41.295Z,11.57
2017-10-01T19:22:09.737Z,12.20
2017-10-01T19:24:38.988Z,10.23
2017-10-01T19:27:07.433Z,11.00
2017-10-01T19:29:35.896Z,10.70
2017-10-01T19:32:05.150Z,8.23
2017-10-01T19:34:33.621Z,9.20
2017-10-01T19:37:02.073Z,9.33
2017-10-01T19:39:31.402Z,8.43
2017-10-01T19:41:59.837Z,6.93
2017-10-01T19:44:29.090Z,6.13
2017-10-01T19:46:57.566Z,6.20
2017-10-01T19:49:26.045Z,5.63
2017-10-01T19:51:54.486Z,5.83
2017-10-01T19:54:23.694Z,5.47
2017-10-01T19:56:52.942Z,6.10
2017-10-01T19:59:21.410Z,6.00
2017-10-01T20:01:49.898Z,6.97
2017-10-01T20:04:18.354Z,6.50
2017-10-01T20:06:46.853Z,7.07
2017-10-01T20:09:15.294Z,8.13
2017-10-01T20:11:44.537Z,7.60
2017-10-01T20:14:12.977Z,7.00
2017-10-01T20:16:42.201Z,7.43
2017-10-01T20:19:10.637Z,9.17
2017-10-01T20:21:39.118Z,9.20
2017-10-01T20:24:07.664Z,9.73
2017-10-01T20:26:36.107Z,8.83
2017-10-01T20:29:05.454Z,9.50
2017-10-01T20:31:33.929Z,11.57
2017-10-01T20:34:02.393Z,11.50
2017-10-01T20:36:30.839Z,10.97
2017-10-01T20:38:59.309Z,10.63
2017-10-01T20:41:27.755Z,10.37
2017-10-01T20:43:56.247Z,11.23
2017-10-01T20:46:24.694Z,10.83
2017-10-01T20:48:53.166Z,11.20
2017-10-01T20:51:22.373Z,9.83
2017-10-01T20:53:51.605Z,13.10
2017-10-01T20:56:20.099Z,11.00
2017-10-01T20:58:48.580Z,12.00
2017-10-01T21:01:17.051Z,10.97
2017-10-01T21:03:45.554Z,10.70
2017-10-01T21:06:14.014Z,11.53
2017-10-01T21:08:42.901Z,11.13
2017-10-01T21:11:11.406Z,10.57
2017-10-01T21:13:39.853Z,11.07
2017-10-01T21:16:08.328Z,11.60
2017-10-01T21:18:36.769Z,11.73
2017-10-01T21:21:05.238Z,11.77
2017-10-01T21:23:33.798Z,11.67
2017-10-01T21:26:02.372Z,12.33
2017-10-01T21:28:30.866Z,11.87
2017-10-01T21:30:59.338Z,12.33
2017-10-01T21:33:27.830Z,11.23
2017-10-01T21:35:56.515Z,11.50
2017-10-01T21:38:24.993Z,10.20
2017-10-01T21:40:53.453Z,11.40
2017-10-01T21:43:21.893Z,13.07
2017-10-01T21:45:50.377Z,12.97
2017-10-01T21:48:18.818Z,12.33
2017-10-01T21:50:47.305Z,11.70
2017-10-01T21:53:15.773Z,13.80
2017-10-01T21:55:44.217Z,12.27
2017-10-01T21:58:13.454Z,12.87
2017-10-01T22:00:41.956Z,11.37
2017-10-01T22:03:10.524Z,12.20
2017-10-01T22:05:39.017Z,12.30
2017-10-01T22:08:07.477Z,13.20
2017-10-01T22:10:35.925Z,12.80
2017-10-01T22:13:04.462Z,12.30
2017-10-01T22:15:32.945Z,13.43
2017-10-01T22:18:01.531Z,12.33
2017-10-01T22:20:29.969Z,12.03
2017-10-01T22:22:59.201Z,12.33
2017-10-01T22:25:27.646Z,10.73
2017-10-01T22:27:56.848Z,11.97
2017-10-01T22:30:26.077Z,14.33
2017-10-01T22:32:54.521Z,11.90
2017-10-01T22:35:23.872Z,11.10
2017-10-01T22:37:52.349Z,11.77
2017-10-01T22:40:20.837Z,11.13
2017-10-01T22:42:49.290Z,12.50
2017-10-01T22:45:17.800Z,11.30
2017-10-01T22:47:46.245Z,11.00
2017-10-01T22:50:15.477Z,10.17
2017-10-01T22:52:43.925Z,10.10
2017-10-01T22:55:13.153Z,10.13
2017-10-01T22:57:41.597Z,9.93
2017-10-01T23:00:10.915Z,11.20
2017-10-01T23:02:40.122Z,11.50
2017-10-01T23:05:08.588Z,10.47
2017-10-01T23:07:37.793Z,11.13
2017-10-01T23:10:07.041Z,10.50
2017-10-01T23:12:35.485Z,11.87
2017-10-01T23:15:03.991Z,10.77
2017-10-01T23:17:32.567Z,11.53
2017-10-01T23:20:01.017Z,10.80
2017-10-01T23:22:30.254Z,10.83
2017-10-01T23:24:58.706Z,11.30
2017-10-01T23:27:27.214Z,11.00
2017-10-01T23:29:55.702Z,11.90
2017-10-01T23:32:24.169Z,10.87
2017-10-01T23:34:52.605Z,11.03
2017-10-01T23:37:21.082Z,10.87
2017-10-01T23:39:49.529Z,10.87
2017-10-01T23:42:17.993Z,12.37
2017-10-01T23:44:46.437Z,12.33
2017-10-01T23:47:15.780Z,12.67
2017-10-01T23:49:44.275Z,10.57
2017-10-01T23:52:12.858Z,12.50
2017-10-01T23:54:41.339Z,11.00
2017-10-01T23:57:09.786Z,11.10
2017-10-01T23:59:39.025Z,11.80
